TimeMDT,TemperatureF,Dew PointF,Humidity,Sea Level PressureIn,VisibilityMPH,Wind Direction,Wind SpeedMPH,Gust SpeedMPH,PrecipitationIn,Events,Conditions,WindDirDegrees,DateUTC
12:53 AM,46.0,26.1,46,30.11,10.0,South,10.4,-,N/A,,Overcast,180,2013-05-04 06:53:00
1:53 AM,45.0,24.1,44,30.11,10.0,South,11.5,-,N/A,,Mostly Cloudy,170,2013-05-04 07:53:00
2:53 AM,43.0,24.1,47,30.11,10.0,Variable,3.5,-,N/A,,Overcast,0,2013-05-04 08:53:00
3:53 AM,42.1,21.9,45,30.12,10.0,East,4.6,-,N/A,,Overcast,90,2013-05-04 09:53:00
4:53 AM,35.1,21.9,59,30.14,10.0,SW,4.6,-,N/A,,Clear,220,2013-05-04 10:53:00
5:53 AM,30.0,21.9,72,30.17,10.0,SSE,5.8,-,N/A,,Clear,150,2013-05-04 11:53:00
6:53 AM,37.9,21.9,53,30.16,10.0,South,8.1,-,N/A,,Clear,170,2013-05-04 12:53:00
7:53 AM,46.0,24.1,42,30.17,-9999.0,North,-9999.0,-,N/A,,Unknown,0,2013-05-04 13:53:00
8:53 AM,48.0,28.0,46,30.17,10.0,Calm,Calm,-,N/A,,Clear,0,2013-05-04 14:53:00
9:53 AM,50.0,28.0,43,30.17,10.0,ESE,4.6,-,N/A,,Scattered Clouds,110,2013-05-04 15:53:00
10:53 AM,52.0,25.0,35,30.18,10.0,ENE,4.6,-,N/A,,Scattered Clouds,70,2013-05-04 16:53:00
11:53 AM,53.1,25.0,34,30.18,10.0,East,5.8,-,N/A,,Scattered Clouds,100,2013-05-04 17:53:00
12:53 PM,55.0,26.1,33,30.17,10.0,Variable,4.6,-,N/A,,Clear,0,2013-05-04 18:53:00
1:53 PM,55.9,25.0,30,30.16,10.0,NE,6.9,-,N/A,,Scattered Clouds,50,2013-05-04 19:53:00
2:53 PM,57.9,27.0,31,30.16,10.0,NNE,9.2,-,N/A,,Partly Cloudy,20,2013-05-04 20:53:00
3:53 PM,57.9,26.1,30,30.16,10.0,NNE,15.0,20.7,N/A,,Clear,30,2013-05-04 21:53:00
4:53 PM,57.9,25.0,28,30.17,10.0,NNE,12.7,16.1,N/A,,Clear,30,2013-05-04 22:53:00
5:53 PM,55.9,25.0,30,30.20,10.0,ENE,10.4,-,N/A,,Clear,70,2013-05-04 23:53:00
6:53 PM,55.0,23.0,29,30.18,10.0,NNE,12.7,-,N/A,,Clear,30,2013-05-05 00:53:00
7:53 PM,50.0,24.1,36,30.19,10.0,ENE,8.1,-,N/A,,Clear,60,2013-05-05 01:53:00
8:53 PM,44.1,24.1,45,30.21,10.0,East,5.8,-,N/A,,Clear,80,2013-05-05 02:53:00
9:53 PM,39.0,24.1,55,30.24,10.0,Calm,Calm,-,N/A,,Clear,0,2013-05-05 03:53:00
10:53 PM,37.0,21.9,54,30.24,10.0,Calm,Calm,-,N/A,,Clear,0,2013-05-05 04:53:00
11:53 PM,34.0,23.0,64,30.25,10.0,SSW,3.5,-,N/A,,Partly Cloudy,210,2013-05-05 05:53:00